sensor_id;sensor_type;location;lat;lon;timestamp;P1;durP1;ratioP1;P2;durP2;ratioP2
7446;SDS011;3765;47.962;7.952;2023-01-26T00:02:08;84.43;;;45.70;;
7446;SDS011;3765;47.962;7.952;2023-01-26T00:04:36;60.73;;;36.67;;
7446;SDS011;3765;47.962;7.952;2023-01-26T00:07:05;68.30;;;39.80;;
7446;SDS011;3765;47.962;7.952;2023-01-26T00:09:33;76.03;;;45.03;;
7446;SDS011;3765;47.962;7.952;2023-01-26T00:12:02;61.87;;;38.93;;
7446;SDS011;3765;47.962;7.952;2023-01-26T00:14:31;59.40;;;36.57;;
7446;SDS011;3765;47.962;7.952;2023-01-26T00:17:16;63.37;;;38.27;;
7446;SDS011;3765;47.962;7.952;2023-01-26T00:19:52;60.20;;;37.97;;
7446;SDS011;3765;47.962;7.952;2023-01-26T00:22:21;57.13;;;37.33;;
7446;SDS011;3765;47.962;7.952;2023-01-26T00:24:50;63.60;;;39.87;;
7446;SDS011;3765;47.962;7.952;2023-01-26T00:27:20;58.43;;;36.70;;
7446;SDS011;3765;47.962;7.952;2023-01-26T00:29:48;54.83;;;35.37;;
7446;SDS011;3765;47.962;7.952;2023-01-26T00:32:16;59.40;;;37.70;;
7446;SDS011;3765;47.962;7.952;2023-01-26T00:34:44;65.50;;;39.00;;
7446;SDS011;3765;47.962;7.952;2023-01-26T00:37:13;60.87;;;38.20;;
7446;SDS011;3765;47.962;7.952;2023-01-26T00:39:41;78.13;;;46.00;;
7446;SDS011;3765;47.962;7.952;2023-01-26T00:42:09;63.03;;;37.80;;
7446;SDS011;3765;47.962;7.952;2023-01-26T00:44:40;64.27;;;38.97;;
7446;SDS011;3765;47.962;7.952;2023-01-26T00:47:10;65.93;;;38.43;;
7446;SDS011;3765;47.962;7.952;2023-01-26T00:49:39;60.07;;;38.17;;
7446;SDS011;3765;47.962;7.952;2023-01-26T00:52:08;59.03;;;36.37;;
7446;SDS011;3765;47.962;7.952;2023-01-26T00:54:36;59.07;;;37.07;;
7446;SDS011;3765;47.962;7.952;2023-01-26T00:57:05;57.03;;;35.80;;
7446;SDS011;3765;47.962;7.952;2023-01-26T00:59:33;62.07;;;38.97;;
7446;SDS011;3765;47.962;7.952;2023-01-26T01:02:03;63.77;;;38.93;;
7446;SDS011;3765;47.962;7.952;2023-01-26T01:04:31;60.57;;;39.00;;
7446;SDS011;3765;47.962;7.952;2023-01-26T01:06:59;57.10;;;37.27;;
7446;SDS011;3765;47.962;7.952;2023-01-26T01:09:27;61.93;;;38.77;;
7446;SDS011;3765;47.962;7.952;2023-01-26T01:11:55;75.50;;;47.37;;
7446;SDS011;3765;47.962;7.952;2023-01-26T01:14:24;55.30;;;36.03;;
7446;SDS011;3765;47.962;7.952;2023-01-26T01:16:52;62.40;;;38.57;;
7446;SDS011;3765;47.962;7.952;2023-01-26T01:19:22;55.60;;;35.37;;
7446;SDS011;3765;47.962;7.952;2023-01-26T01:21:50;57.13;;;36.47;;
7446;SDS011;3765;47.962;7.952;2023-01-26T01:24:18;62.23;;;40.13;;
7446;SDS011;3765;47.962;7.952;2023-01-26T01:26:46;61.13;;;37.10;;
7446;SDS011;3765;47.962;7.952;2023-01-26T01:29:15;63.10;;;38.87;;
7446;SDS011;3765;47.962;7.952;2023-01-26T01:31:43;55.23;;;35.50;;
7446;SDS011;3765;47.962;7.952;2023-01-26T01:34:11;68.63;;;40.37;;
7446;SDS011;3765;47.962;7.952;2023-01-26T01:36:41;57.53;;;36.40;;
7446;SDS011;3765;47.962;7.952;2023-01-26T01:39:09;55.10;;;35.60;;
7446;SDS011;3765;47.962;7.952;2023-01-26T01:41:37;54.20;;;34.07;;
7446;SDS011;3765;47.962;7.952;2023-01-26T01:44:16;62.50;;;39.30;;
7446;SDS011;3765;47.962;7.952;2023-01-26T01:46:46;53.57;;;33.60;;
7446;SDS011;3765;47.962;7.952;2023-01-26T01:49:18;56.73;;;35.53;;
7446;SDS011;3765;47.962;7.952;2023-01-26T01:51:51;57.90;;;35.10;;
7446;SDS011;3765;47.962;7.952;2023-01-26T01:54:23;54.90;;;34.43;;
7446;SDS011;3765;47.962;7.952;2023-01-26T01:56:55;59.77;;;36.63;;
7446;SDS011;3765;47.962;7.952;2023-01-26T01:59:27;53.60;;;33.33;;
7446;SDS011;3765;47.962;7.952;2023-01-26T02:01:56;56.63;;;33.03;;
7446;SDS011;3765;47.962;7.952;2023-01-26T02:04:24;52.67;;;33.20;;
7446;SDS011;3765;47.962;7.952;2023-01-26T02:06:56;59.40;;;36.83;;
7446;SDS011;3765;47.962;7.952;2023-01-26T02:09:27;61.03;;;37.63;;
7446;SDS011;3765;47.962;7.952;2023-01-26T02:12:20;56.67;;;34.63;;
7446;SDS011;3765;47.962;7.952;2023-01-26T02:14:53;56.60;;;35.27;;
7446;SDS011;3765;47.962;7.952;2023-01-26T02:17:23;82.07;;;46.33;;
7446;SDS011;3765;47.962;7.952;2023-01-26T02:19:54;57.20;;;34.43;;
7446;SDS011;3765;47.962;7.952;2023-01-26T02:22:32;49.60;;;32.13;;
7446;SDS011;3765;47.962;7.952;2023-01-26T02:25:17;66.80;;;37.73;;
7446;SDS011;3765;47.962;7.952;2023-01-26T02:27:55;53.33;;;32.80;;
7446;SDS011;3765;47.962;7.952;2023-01-26T02:30:24;54.60;;;33.90;;
7446;SDS011;3765;47.962;7.952;2023-01-26T02:32:54;51.93;;;34.27;;
7446;SDS011;3765;47.962;7.952;2023-01-26T02:35:22;58.00;;;33.53;;
7446;SDS011;3765;47.962;7.952;2023-01-26T02:37:55;65.33;;;40.00;;
7446;SDS011;3765;47.962;7.952;2023-01-26T02:40:31;49.70;;;33.07;;
7446;SDS011;3765;47.962;7.952;2023-01-26T02:43:09;48.20;;;31.17;;
7446;SDS011;3765;47.962;7.952;2023-01-26T02:45:39;46.33;;;29.90;;
7446;SDS011;3765;47.962;7.952;2023-01-26T02:48:08;58.60;;;37.33;;
7446;SDS011;3765;47.962;7.952;2023-01-26T02:50:37;46.57;;;30.77;;
7446;SDS011;3765;47.962;7.952;2023-01-26T02:53:08;53.67;;;34.83;;
7446;SDS011;3765;47.962;7.952;2023-01-26T02:55:42;47.00;;;29.53;;
7446;SDS011;3765;47.962;7.952;2023-01-26T02:58:10;42.97;;;29.60;;
7446;SDS011;3765;47.962;7.952;2023-01-26T03:00:52;44.07;;;29.83;;
7446;SDS011;3765;47.962;7.952;2023-01-26T03:03:23;64.47;;;39.00;;
7446;SDS011;3765;47.962;7.952;2023-01-26T03:06:07;46.17;;;30.70;;
7446;SDS011;3765;47.962;7.952;2023-01-26T03:08:40;54.17;;;33.80;;
7446;SDS011;3765;47.962;7.952;2023-01-26T03:11:12;53.57;;;34.60;;
7446;SDS011;3765;47.962;7.952;2023-01-26T03:13:42;48.87;;;33.27;;
7446;SDS011;3765;47.962;7.952;2023-01-26T03:16:11;54.83;;;34.10;;
7446;SDS011;3765;47.962;7.952;2023-01-26T03:18:43;59.37;;;37.40;;
7446;SDS011;3765;47.962;7.952;2023-01-26T03:21:31;57.10;;;34.90;;
7446;SDS011;3765;47.962;7.952;2023-01-26T03:24:17;59.27;;;32.40;;
7446;SDS011;3765;47.962;7.952;2023-01-26T03:27:02;56.97;;;34.40;;
7446;SDS011;3765;47.962;7.952;2023-01-26T03:30:06;49.80;;;31.57;;
7446;SDS011;3765;47.962;7.952;2023-01-26T03:32:39;52.70;;;32.47;;
7446;SDS011;3765;47.962;7.952;2023-01-26T03:35:10;55.80;;;35.50;;
7446;SDS011;3765;47.962;7.952;2023-01-26T03:37:50;56.57;;;33.70;;
7446;SDS011;3765;47.962;7.952;2023-01-26T03:40:25;53.50;;;31.87;;
7446;SDS011;3765;47.962;7.952;2023-01-26T03:43:11;55.27;;;34.33;;
7446;SDS011;3765;47.962;7.952;2023-01-26T03:46:09;52.40;;;33.73;;
7446;SDS011;3765;47.962;7.952;2023-01-26T03:48:56;50.50;;;33.60;;
7446;SDS011;3765;47.962;7.952;2023-01-26T03:51:46;55.47;;;32.83;;
7446;SDS011;3765;47.962;7.952;2023-01-26T03:54:33;56.30;;;33.70;;
7446;SDS011;3765;47.962;7.952;2023-01-26T03:57:22;55.83;;;35.23;;
7446;SDS011;3765;47.962;7.952;2023-01-26T03:59:54;58.90;;;34.60;;
7446;SDS011;3765;47.962;7.952;2023-01-26T04:02:27;57.57;;;35.40;;
7446;SDS011;3765;47.962;7.952;2023-01-26T04:05:15;58.93;;;33.37;;
7446;SDS011;3765;47.962;7.952;2023-01-26T04:08:01;65.77;;;35.50;;
7446;SDS011;3765;47.962;7.952;2023-01-26T04:10:50;61.33;;;34.50;;
7446;SDS011;3765;47.962;7.952;2023-01-26T04:13:23;68.47;;;37.27;;
7446;SDS011;3765;47.962;7.952;2023-01-26T04:16:10;58.40;;;35.47;;
7446;SDS011;3765;47.962;7.952;2023-01-26T04:19:00;65.00;;;36.30;;
7446;SDS011;3765;47.962;7.952;2023-01-26T04:21:48;62.27;;;36.97;;
7446;SDS011;3765;47.962;7.952;2023-01-26T04:24:19;57.93;;;36.13;;
7446;SDS011;3765;47.962;7.952;2023-01-26T04:26:50;61.17;;;36.10;;
7446;SDS011;3765;47.962;7.952;2023-01-26T04:29:18;57.60;;;35.03;;
7446;SDS011;3765;47.962;7.952;2023-01-26T04:31:50;56.67;;;34.57;;
7446;SDS011;3765;47.962;7.952;2023-01-26T04:34:20;61.83;;;38.03;;
7446;SDS011;3765;47.962;7.952;2023-01-26T04:36:50;65.90;;;37.37;;
7446;SDS011;3765;47.962;7.952;2023-01-26T04:39:20;53.67;;;33.67;;
7446;SDS011;3765;47.962;7.952;2023-01-26T04:41:50;54.23;;;34.53;;
7446;SDS011;3765;47.962;7.952;2023-01-26T04:44:21;55.77;;;33.90;;
7446;SDS011;3765;47.962;7.952;2023-01-26T04:46:51;74.73;;;34.40;;
7446;SDS011;3765;47.962;7.952;2023-01-26T04:49:24;88.57;;;36.20;;
7446;SDS011;3765;47.962;7.952;2023-01-26T04:52:00;65.53;;;38.50;;
7446;SDS011;3765;47.962;7.952;2023-01-26T04:54:30;65.87;;;37.80;;
7446;SDS011;3765;47.962;7.952;2023-01-26T04:56:58;60.83;;;36.27;;
7446;SDS011;3765;47.962;7.952;2023-01-26T04:59:27;116.17;;;36.57;;
7446;SDS011;3765;47.962;7.952;2023-01-26T05:01:58;59.40;;;36.63;;
7446;SDS011;3765;47.962;7.952;2023-01-26T05:04:35;57.27;;;35.83;;
7446;SDS011;3765;47.962;7.952;2023-01-26T05:07:07;60.97;;;36.00;;
7446;SDS011;3765;47.962;7.952;2023-01-26T05:09:35;63.50;;;36.23;;
7446;SDS011;3765;47.962;7.952;2023-01-26T05:12:06;143.20;;;35.53;;
7446;SDS011;3765;47.962;7.952;2023-01-26T05:14:52;73.23;;;37.37;;
7446;SDS011;3765;47.962;7.952;2023-01-26T05:17:21;62.70;;;36.47;;
7446;SDS011;3765;47.962;7.952;2023-01-26T05:19:53;57.37;;;34.77;;
7446;SDS011;3765;47.962;7.952;2023-01-26T05:22:37;56.83;;;33.47;;
7446;SDS011;3765;47.962;7.952;2023-01-26T05:25:07;56.10;;;34.13;;
7446;SDS011;3765;47.962;7.952;2023-01-26T05:27:39;52.43;;;33.60;;
7446;SDS011;3765;47.962;7.952;2023-01-26T05:30:09;60.37;;;34.07;;
7446;SDS011;3765;47.962;7.952;2023-01-26T05:32:41;49.10;;;31.73;;
7446;SDS011;3765;47.962;7.952;2023-01-26T05:35:17;56.43;;;32.50;;
7446;SDS011;3765;47.962;7.952;2023-01-26T05:37:45;52.40;;;32.43;;
7446;SDS011;3765;47.962;7.952;2023-01-26T05:40:14;52.43;;;31.40;;
7446;SDS011;3765;47.962;7.952;2023-01-26T05:42:45;47.93;;;30.80;;
7446;SDS011;3765;47.962;7.952;2023-01-26T05:45:21;48.40;;;31.03;;
7446;SDS011;3765;47.962;7.952;2023-01-26T05:47:54;51.50;;;31.83;;
7446;SDS011;3765;47.962;7.952;2023-01-26T05:50:38;51.40;;;31.77;;
7446;SDS011;3765;47.962;7.952;2023-01-26T05:53:10;48.53;;;29.40;;
7446;SDS011;3765;47.962;7.952;2023-01-26T05:55:39;48.87;;;30.30;;
7446;SDS011;3765;47.962;7.952;2023-01-26T05:58:07;124.77;;;80.10;;
7446;SDS011;3765;47.962;7.952;2023-01-26T06:00:35;54.70;;;32.60;;
7446;SDS011;3765;47.962;7.952;2023-01-26T06:03:06;47.80;;;28.87;;
7446;SDS011;3765;47.962;7.952;2023-01-26T06:05:52;46.80;;;29.33;;
7446;SDS011;3765;47.962;7.952;2023-01-26T06:08:24;46.47;;;29.30;;
7446;SDS011;3765;47.962;7.952;2023-01-26T06:10:57;48.53;;;28.87;;
7446;SDS011;3765;47.962;7.952;2023-01-26T06:13:32;42.70;;;26.40;;
7446;SDS011;3765;47.962;7.952;2023-01-26T06:16:03;45.17;;;27.00;;
7446;SDS011;3765;47.962;7.952;2023-01-26T06:18:34;41.90;;;26.50;;
7446;SDS011;3765;47.962;7.952;2023-01-26T06:21:05;40.37;;;25.10;;
7446;SDS011;3765;47.962;7.952;2023-01-26T06:23:35;40.13;;;26.03;;
7446;SDS011;3765;47.962;7.952;2023-01-26T06:26:06;39.67;;;24.23;;
7446;SDS011;3765;47.962;7.952;2023-01-26T06:28:37;44.43;;;25.60;;
7446;SDS011;3765;47.962;7.952;2023-01-26T06:31:06;39.17;;;26.10;;
7446;SDS011;3765;47.962;7.952;2023-01-26T06:33:36;35.40;;;24.07;;
7446;SDS011;3765;47.962;7.952;2023-01-26T06:36:11;37.70;;;23.07;;
7446;SDS011;3765;47.962;7.952;2023-01-26T06:38:44;36.93;;;22.57;;
7446;SDS011;3765;47.962;7.952;2023-01-26T06:41:16;57.40;;;36.13;;
7446;SDS011;3765;47.962;7.952;2023-01-26T06:43:47;40.10;;;26.23;;
7446;SDS011;3765;47.962;7.952;2023-01-26T06:46:19;32.50;;;21.17;;
7446;SDS011;3765;47.962;7.952;2023-01-26T06:48:49;32.10;;;20.97;;
7446;SDS011;3765;47.962;7.952;2023-01-26T06:51:39;31.20;;;19.77;;
7446;SDS011;3765;47.962;7.952;2023-01-26T06:54:28;33.27;;;20.97;;
7446;SDS011;3765;47.962;7.952;2023-01-26T06:57:08;33.37;;;18.93;;
7446;SDS011;3765;47.962;7.952;2023-01-26T06:59:37;31.60;;;18.10;;
7446;SDS011;3765;47.962;7.952;2023-01-26T07:02:08;26.20;;;16.50;;
7446;SDS011;3765;47.962;7.952;2023-01-26T07:04:43;29.20;;;18.60;;
7446;SDS011;3765;47.962;7.952;2023-01-26T07:07:26;30.20;;;18.07;;
7446;SDS011;3765;47.962;7.952;2023-01-26T07:09:55;30.83;;;18.47;;
7446;SDS011;3765;47.962;7.952;2023-01-26T07:12:23;31.20;;;19.93;;
7446;SDS011;3765;47.962;7.952;2023-01-26T07:14:55;27.43;;;18.47;;
7446;SDS011;3765;47.962;7.952;2023-01-26T07:17:25;26.80;;;17.00;;
7446;SDS011;3765;47.962;7.952;2023-01-26T07:19:54;29.00;;;17.57;;
7446;SDS011;3765;47.962;7.952;2023-01-26T07:22:25;30.17;;;18.33;;
7446;SDS011;3765;47.962;7.952;2023-01-26T07:24:57;54.73;;;17.30;;
7446;SDS011;3765;47.962;7.952;2023-01-26T07:27:28;30.17;;;17.33;;
7446;SDS011;3765;47.962;7.952;2023-01-26T07:30:05;28.07;;;16.50;;
7446;SDS011;3765;47.962;7.952;2023-01-26T07:32:35;23.90;;;15.67;;
7446;SDS011;3765;47.962;7.952;2023-01-26T07:35:06;25.17;;;16.67;;
7446;SDS011;3765;47.962;7.952;2023-01-26T07:37:37;26.77;;;16.50;;
7446;SDS011;3765;47.962;7.952;2023-01-26T07:40:06;24.40;;;15.63;;
7446;SDS011;3765;47.962;7.952;2023-01-26T07:42:37;28.60;;;17.57;;
7446;SDS011;3765;47.962;7.952;2023-01-26T07:45:06;29.33;;;15.13;;
7446;SDS011;3765;47.962;7.952;2023-01-26T07:47:36;27.30;;;16.83;;
7446;SDS011;3765;47.962;7.952;2023-01-26T07:50:07;27.10;;;16.17;;
7446;SDS011;3765;47.962;7.952;2023-01-26T07:52:49;24.20;;;15.17;;
7446;SDS011;3765;47.962;7.952;2023-01-26T07:55:19;25.30;;;16.80;;
7446;SDS011;3765;47.962;7.952;2023-01-26T07:57:53;28.57;;;15.97;;
7446;SDS011;3765;47.962;7.952;2023-01-26T08:00:25;27.80;;;16.57;;
7446;SDS011;3765;47.962;7.952;2023-01-26T08:02:55;23.27;;;14.17;;
7446;SDS011;3765;47.962;7.952;2023-01-26T08:05:31;23.50;;;15.07;;
7446;SDS011;3765;47.962;7.952;2023-01-26T08:08:16;24.50;;;15.07;;
7446;SDS011;3765;47.962;7.952;2023-01-26T08:10:46;25.27;;;14.33;;
7446;SDS011;3765;47.962;7.952;2023-01-26T08:13:16;22.30;;;13.50;;
7446;SDS011;3765;47.962;7.952;2023-01-26T08:16:00;25.93;;;15.53;;
7446;SDS011;3765;47.962;7.952;2023-01-26T08:18:35;20.60;;;13.40;;
7446;SDS011;3765;47.962;7.952;2023-01-26T08:21:05;24.13;;;15.10;;
7446;SDS011;3765;47.962;7.952;2023-01-26T08:23:46;20.03;;;12.80;;
7446;SDS011;3765;47.962;7.952;2023-01-26T08:26:22;21.73;;;13.40;;
7446;SDS011;3765;47.962;7.952;2023-01-26T08:28:57;22.27;;;13.33;;
7446;SDS011;3765;47.962;7.952;2023-01-26T08:31:32;20.97;;;14.20;;
7446;SDS011;3765;47.962;7.952;2023-01-26T08:34:00;20.93;;;13.23;;
7446;SDS011;3765;47.962;7.952;2023-01-26T08:36:34;21.90;;;13.40;;
7446;SDS011;3765;47.962;7.952;2023-01-26T08:39:03;22.33;;;14.20;;
7446;SDS011;3765;47.962;7.952;2023-01-26T08:41:32;22.00;;;14.77;;
7446;SDS011;3765;47.962;7.952;2023-01-26T08:44:00;25.77;;;13.87;;
7446;SDS011;3765;47.962;7.952;2023-01-26T08:46:28;22.40;;;14.00;;
7446;SDS011;3765;47.962;7.952;2023-01-26T08:48:56;23.80;;;14.43;;
7446;SDS011;3765;47.962;7.952;2023-01-26T08:51:27;24.33;;;14.67;;
7446;SDS011;3765;47.962;7.952;2023-01-26T08:53:56;28.83;;;16.57;;
7446;SDS011;3765;47.962;7.952;2023-01-26T08:56:27;28.23;;;15.23;;
7446;SDS011;3765;47.962;7.952;2023-01-26T08:58:57;26.93;;;15.83;;
7446;SDS011;3765;47.962;7.952;2023-01-26T09:01:26;30.10;;;17.27;;
7446;SDS011;3765;47.962;7.952;2023-01-26T09:03:54;30.33;;;16.80;;
7446;SDS011;3765;47.962;7.952;2023-01-26T09:06:23;28.40;;;18.37;;
7446;SDS011;3765;47.962;7.952;2023-01-26T09:08:52;31.47;;;18.50;;
7446;SDS011;3765;47.962;7.952;2023-01-26T09:11:21;33.00;;;19.00;;
7446;SDS011;3765;47.962;7.952;2023-01-26T09:13:50;31.80;;;17.90;;
7446;SDS011;3765;47.962;7.952;2023-01-26T09:16:22;31.53;;;18.67;;
7446;SDS011;3765;47.962;7.952;2023-01-26T09:18:51;29.50;;;19.13;;
7446;SDS011;3765;47.962;7.952;2023-01-26T09:21:20;32.43;;;18.30;;
7446;SDS011;3765;47.962;7.952;2023-01-26T09:23:49;31.83;;;19.20;;
7446;SDS011;3765;47.962;7.952;2023-01-26T09:26:17;31.97;;;19.80;;
7446;SDS011;3765;47.962;7.952;2023-01-26T09:28:48;33.90;;;19.57;;
7446;SDS011;3765;47.962;7.952;2023-01-26T09:31:18;32.57;;;18.67;;
7446;SDS011;3765;47.962;7.952;2023-01-26T09:33:49;30.23;;;18.97;;
7446;SDS011;3765;47.962;7.952;2023-01-26T09:36:18;31.47;;;18.80;;
7446;SDS011;3765;47.962;7.952;2023-01-26T09:38:46;30.03;;;19.20;;
7446;SDS011;3765;47.962;7.952;2023-01-26T09:41:19;30.07;;;19.90;;
7446;SDS011;3765;47.962;7.952;2023-01-26T09:43:58;29.70;;;18.30;;
7446;SDS011;3765;47.962;7.952;2023-01-26T09:46:34;31.67;;;19.67;;
7446;SDS011;3765;47.962;7.952;2023-01-26T09:49:14;32.20;;;20.00;;
7446;SDS011;3765;47.962;7.952;2023-01-26T09:51:49;30.90;;;18.63;;
7446;SDS011;3765;47.962;7.952;2023-01-26T09:54:25;27.43;;;18.07;;
7446;SDS011;3765;47.962;7.952;2023-01-26T09:56:59;29.57;;;19.40;;
7446;SDS011;3765;47.962;7.952;2023-01-26T09:59:31;29.13;;;17.70;;
7446;SDS011;3765;47.962;7.952;2023-01-26T10:02:09;30.97;;;18.10;;
7446;SDS011;3765;47.962;7.952;2023-01-26T10:04:48;43.23;;;19.17;;
7446;SDS011;3765;47.962;7.952;2023-01-26T10:07:19;27.90;;;17.77;;
7446;SDS011;3765;47.962;7.952;2023-01-26T10:09:48;34.40;;;20.23;;
7446;SDS011;3765;47.962;7.952;2023-01-26T10:12:22;31.23;;;19.20;;
7446;SDS011;3765;47.962;7.952;2023-01-26T10:14:56;30.97;;;19.30;;
7446;SDS011;3765;47.962;7.952;2023-01-26T10:17:30;32.60;;;18.97;;
7446;SDS011;3765;47.962;7.952;2023-01-26T10:20:02;33.20;;;20.20;;
7446;SDS011;3765;47.962;7.952;2023-01-26T10:22:37;30.93;;;20.37;;
7446;SDS011;3765;47.962;7.952;2023-01-26T10:25:15;29.97;;;19.00;;
7446;SDS011;3765;47.962;7.952;2023-01-26T10:27:45;29.93;;;20.67;;
7446;SDS011;3765;47.962;7.952;2023-01-26T10:30:17;30.63;;;19.93;;
7446;SDS011;3765;47.962;7.952;2023-01-26T10:32:49;32.13;;;19.80;;
7446;SDS011;3765;47.962;7.952;2023-01-26T10:35:20;31.30;;;19.50;;
7446;SDS011;3765;47.962;7.952;2023-01-26T10:37:49;33.30;;;21.10;;
7446;SDS011;3765;47.962;7.952;2023-01-26T10:40:18;35.27;;;21.80;;
7446;SDS011;3765;47.962;7.952;2023-01-26T10:42:57;31.00;;;20.87;;
7446;SDS011;3765;47.962;7.952;2023-01-26T10:45:28;41.13;;;22.97;;
7446;SDS011;3765;47.962;7.952;2023-01-26T10:48:15;41.20;;;23.03;;
7446;SDS011;3765;47.962;7.952;2023-01-26T10:50:45;37.60;;;21.20;;
7446;SDS011;3765;47.962;7.952;2023-01-26T10:53:15;33.00;;;21.23;;
7446;SDS011;3765;47.962;7.952;2023-01-26T10:55:58;41.07;;;23.00;;
7446;SDS011;3765;47.962;7.952;2023-01-26T10:58:38;34.37;;;21.50;;
7446;SDS011;3765;47.962;7.952;2023-01-26T11:01:12;34.17;;;21.87;;
7446;SDS011;3765;47.962;7.952;2023-01-26T11:03:41;34.23;;;21.60;;
7446;SDS011;3765;47.962;7.952;2023-01-26T11:06:26;39.57;;;23.40;;
7446;SDS011;3765;47.962;7.952;2023-01-26T11:09:06;35.33;;;21.50;;
7446;SDS011;3765;47.962;7.952;2023-01-26T11:11:36;34.60;;;21.50;;
7446;SDS011;3765;47.962;7.952;2023-01-26T11:14:09;33.97;;;21.63;;
7446;SDS011;3765;47.962;7.952;2023-01-26T11:16:40;40.17;;;29.20;;
7446;SDS011;3765;47.962;7.952;2023-01-26T11:19:12;32.73;;;20.57;;
7446;SDS011;3765;47.962;7.952;2023-01-26T11:21:52;38.67;;;25.43;;
7446;SDS011;3765;47.962;7.952;2023-01-26T11:24:24;51.47;;;37.27;;
7446;SDS011;3765;47.962;7.952;2023-01-26T11:29:50;34.10;;;20.40;;
7446;SDS011;3765;47.962;7.952;2023-01-26T11:32:39;36.13;;;23.53;;
7446;SDS011;3765;47.962;7.952;2023-01-26T11:35:14;30.77;;;20.10;;
7446;SDS011;3765;47.962;7.952;2023-01-26T11:37:54;31.23;;;20.33;;
7446;SDS011;3765;47.962;7.952;2023-01-26T11:40:31;30.60;;;19.80;;
7446;SDS011;3765;47.962;7.952;2023-01-26T11:43:12;32.43;;;20.47;;
7446;SDS011;3765;47.962;7.952;2023-01-26T11:46:00;33.40;;;20.17;;
7446;SDS011;3765;47.962;7.952;2023-01-26T11:48:42;28.70;;;19.20;;
7446;SDS011;3765;47.962;7.952;2023-01-26T11:51:19;30.57;;;19.60;;
7446;SDS011;3765;47.962;7.952;2023-01-26T11:54:18;30.23;;;19.37;;
7446;SDS011;3765;47.962;7.952;2023-01-26T11:56:56;29.30;;;18.23;;
7446;SDS011;3765;47.962;7.952;2023-01-26T11:59:37;30.60;;;19.03;;
7446;SDS011;3765;47.962;7.952;2023-01-26T12:02:20;33.37;;;19.67;;
7446;SDS011;3765;47.962;7.952;2023-01-26T12:05:00;35.00;;;19.73;;
7446;SDS011;3765;47.962;7.952;2023-01-26T12:07:37;29.50;;;18.83;;
7446;SDS011;3765;47.962;7.952;2023-01-26T12:10:23;29.90;;;19.93;;
7446;SDS011;3765;47.962;7.952;2023-01-26T12:13:00;31.37;;;19.40;;
7446;SDS011;3765;47.962;7.952;2023-01-26T12:15:36;37.73;;;21.43;;
7446;SDS011;3765;47.962;7.952;2023-01-26T12:18:21;31.83;;;20.10;;
7446;SDS011;3765;47.962;7.952;2023-01-26T12:21:19;33.63;;;20.83;;
7446;SDS011;3765;47.962;7.952;2023-01-26T12:23:54;36.20;;;21.37;;
7446;SDS011;3765;47.962;7.952;2023-01-26T12:26:27;33.83;;;21.37;;
7446;SDS011;3765;47.962;7.952;2023-01-26T12:29:02;37.00;;;22.30;;
7446;SDS011;3765;47.962;7.952;2023-01-26T12:31:43;36.87;;;21.97;;
7446;SDS011;3765;47.962;7.952;2023-01-26T12:34:21;31.13;;;20.70;;
7446;SDS011;3765;47.962;7.952;2023-01-26T12:37:07;32.93;;;21.37;;
7446;SDS011;3765;47.962;7.952;2023-01-26T12:39:55;65.70;;;37.13;;
7446;SDS011;3765;47.962;7.952;2023-01-26T12:42:38;39.83;;;20.87;;
7446;SDS011;3765;47.962;7.952;2023-01-26T12:45:16;35.57;;;21.80;;
7446;SDS011;3765;47.962;7.952;2023-01-26T12:47:52;35.80;;;21.93;;
7446;SDS011;3765;47.962;7.952;2023-01-26T12:50:31;38.30;;;22.80;;
7446;SDS011;3765;47.962;7.952;2023-01-26T12:53:06;35.80;;;22.07;;
7446;SDS011;3765;47.962;7.952;2023-01-26T12:55:41;31.40;;;21.13;;
7446;SDS011;3765;47.962;7.952;2023-01-26T12:58:13;37.23;;;21.57;;
7446;SDS011;3765;47.962;7.952;2023-01-26T13:00:50;35.07;;;21.17;;
7446;SDS011;3765;47.962;7.952;2023-01-26T13:03:20;36.63;;;21.43;;
7446;SDS011;3765;47.962;7.952;2023-01-26T13:05:55;34.80;;;21.87;;
7446;SDS011;3765;47.962;7.952;2023-01-26T13:08:39;51.43;;;21.03;;
7446;SDS011;3765;47.962;7.952;2023-01-26T13:20:21;41.33;;;21.70;;
7446;SDS011;3765;47.962;7.952;2023-01-26T13:22:51;34.77;;;21.60;;
7446;SDS011;3765;47.962;7.952;2023-01-26T13:25:27;40.10;;;22.70;;
7446;SDS011;3765;47.962;7.952;2023-01-26T13:28:00;34.93;;;22.60;;
7446;SDS011;3765;47.962;7.952;2023-01-26T13:30:41;38.57;;;26.10;;
7446;SDS011;3765;47.962;7.952;2023-01-26T13:33:17;37.50;;;24.33;;
7446;SDS011;3765;47.962;7.952;2023-01-26T13:35:52;60.83;;;40.57;;
7446;SDS011;3765;47.962;7.952;2023-01-26T13:38:25;43.20;;;29.00;;
7446;SDS011;3765;47.962;7.952;2023-01-26T13:40:58;34.17;;;24.10;;
7446;SDS011;3765;47.962;7.952;2023-01-26T13:43:27;41.27;;;23.30;;
7446;SDS011;3765;47.962;7.952;2023-01-26T13:46:04;36.20;;;22.97;;
7446;SDS011;3765;47.962;7.952;2023-01-26T13:48:44;39.47;;;25.23;;
7446;SDS011;3765;47.962;7.952;2023-01-26T13:51:17;35.23;;;23.37;;
7446;SDS011;3765;47.962;7.952;2023-01-26T13:53:47;33.80;;;20.57;;
7446;SDS011;3765;47.962;7.952;2023-01-26T13:56:23;43.50;;;23.17;;
7446;SDS011;3765;47.962;7.952;2023-01-26T13:59:02;40.57;;;23.00;;
7446;SDS011;3765;47.962;7.952;2023-01-26T14:01:31;43.13;;;23.47;;
7446;SDS011;3765;47.962;7.952;2023-01-26T14:04:03;31.37;;;21.60;;
7446;SDS011;3765;47.962;7.952;2023-01-26T14:06:32;32.87;;;22.20;;
7446;SDS011;3765;47.962;7.952;2023-01-26T14:09:03;38.43;;;23.10;;
7446;SDS011;3765;47.962;7.952;2023-01-26T14:11:35;37.67;;;23.40;;
7446;SDS011;3765;47.962;7.952;2023-01-26T14:14:04;46.33;;;26.80;;
7446;SDS011;3765;47.962;7.952;2023-01-26T14:16:43;49.33;;;27.30;;
7446;SDS011;3765;47.962;7.952;2023-01-26T14:19:12;47.93;;;26.40;;
7446;SDS011;3765;47.962;7.952;2023-01-26T14:21:45;46.13;;;26.57;;
7446;SDS011;3765;47.962;7.952;2023-01-26T14:24:14;43.00;;;25.33;;
7446;SDS011;3765;47.962;7.952;2023-01-26T14:26:44;37.80;;;22.57;;
7446;SDS011;3765;47.962;7.952;2023-01-26T14:29:17;36.50;;;24.37;;
7446;SDS011;3765;47.962;7.952;2023-01-26T14:31:48;38.97;;;24.10;;
7446;SDS011;3765;47.962;7.952;2023-01-26T14:34:19;44.70;;;26.07;;
7446;SDS011;3765;47.962;7.952;2023-01-26T14:37:02;51.43;;;34.00;;
7446;SDS011;3765;47.962;7.952;2023-01-26T14:39:32;44.90;;;23.27;;
7446;SDS011;3765;47.962;7.952;2023-01-26T14:42:02;39.17;;;24.97;;
7446;SDS011;3765;47.962;7.952;2023-01-26T14:44:31;38.87;;;24.20;;
7446;SDS011;3765;47.962;7.952;2023-01-26T14:46:59;43.77;;;26.37;;
7446;SDS011;3765;47.962;7.952;2023-01-26T14:49:34;36.37;;;24.30;;
7446;SDS011;3765;47.962;7.952;2023-01-26T14:52:16;34.53;;;21.93;;
7446;SDS011;3765;47.962;7.952;2023-01-26T14:54:50;36.10;;;23.10;;
7446;SDS011;3765;47.962;7.952;2023-01-26T14:57:21;35.60;;;23.07;;
7446;SDS011;3765;47.962;7.952;2023-01-26T14:59:52;39.10;;;21.73;;
7446;SDS011;3765;47.962;7.952;2023-01-26T15:02:22;36.73;;;23.40;;
7446;SDS011;3765;47.962;7.952;2023-01-26T15:04:53;36.07;;;22.40;;
7446;SDS011;3765;47.962;7.952;2023-01-26T15:07:30;34.43;;;21.93;;
7446;SDS011;3765;47.962;7.952;2023-01-26T15:10:02;35.13;;;22.70;;
7446;SDS011;3765;47.962;7.952;2023-01-26T15:12:56;35.87;;;21.30;;
7446;SDS011;3765;47.962;7.952;2023-01-26T15:15:26;39.10;;;23.00;;
7446;SDS011;3765;47.962;7.952;2023-01-26T15:18:00;34.27;;;22.13;;
7446;SDS011;3765;47.962;7.952;2023-01-26T15:20:36;36.97;;;24.47;;
7446;SDS011;3765;47.962;7.952;2023-01-26T15:26:02;39.20;;;23.77;;
7446;SDS011;3765;47.962;7.952;2023-01-26T15:28:33;43.10;;;25.83;;
7446;SDS011;3765;47.962;7.952;2023-01-26T15:31:02;39.93;;;23.30;;
7446;SDS011;3765;47.962;7.952;2023-01-26T15:33:38;37.43;;;23.70;;
7446;SDS011;3765;47.962;7.952;2023-01-26T15:36:23;39.87;;;25.60;;
7446;SDS011;3765;47.962;7.952;2023-01-26T15:38:58;36.10;;;23.30;;
7446;SDS011;3765;47.962;7.952;2023-01-26T15:41:28;51.60;;;34.00;;
7446;SDS011;3765;47.962;7.952;2023-01-26T15:43:58;42.47;;;26.50;;